sensor_id;sensor_type;location;lat;lon;timestamp;P1;durP1;ratioP1;P2;durP2;ratioP2
53775;SDS011;44276;49.534;6.378;2024-01-30T00:01:08;32.30;;;12.65;;
53775;SDS011;44276;49.534;6.378;2024-01-30T00:03:37;35.85;;;13.77;;
53775;SDS011;44276;49.534;6.378;2024-01-30T00:06:07;30.48;;;11.88;;
53775;SDS011;44276;49.534;6.378;2024-01-30T00:08:36;31.50;;;13.25;;
53775;SDS011;44276;49.534;6.378;2024-01-30T00:11:04;29.48;;;13.00;;
53775;SDS011;44276;49.534;6.378;2024-01-30T00:13:32;26.17;;;12.88;;
53775;SDS011;44276;49.534;6.378;2024-01-30T00:16:00;33.35;;;13.05;;
53775;SDS011;44276;49.534;6.378;2024-01-30T00:18:30;23.83;;;9.88;;
53775;SDS011;44276;49.534;6.378;2024-01-30T00:20:58;35.58;;;12.57;;
53775;SDS011;44276;49.534;6.378;2024-01-30T00:23:28;25.98;;;11.13;;
53775;SDS011;44276;49.534;6.378;2024-01-30T00:25:56;24.60;;;9.75;;
53775;SDS011;44276;49.534;6.378;2024-01-30T00:28:24;23.85;;;9.80;;
53775;SDS011;44276;49.534;6.378;2024-01-30T00:30:53;22.33;;;10.20;;
53775;SDS011;44276;49.534;6.378;2024-01-30T00:33:21;37.85;;;10.63;;
53775;SDS011;44276;49.534;6.378;2024-01-30T00:35:49;23.83;;;10.32;;
53775;SDS011;44276;49.534;6.378;2024-01-30T00:38:18;23.60;;;10.50;;
53775;SDS011;44276;49.534;6.378;2024-01-30T00:40:47;22.02;;;10.38;;
53775;SDS011;44276;49.534;6.378;2024-01-30T00:43:16;31.38;;;11.65;;
53775;SDS011;44276;49.534;6.378;2024-01-30T00:45:44;29.58;;;11.93;;
53775;SDS011;44276;49.534;6.378;2024-01-30T00:48:13;25.30;;;11.77;;
53775;SDS011;44276;49.534;6.378;2024-01-30T00:50:41;28.48;;;11.10;;
53775;SDS011;44276;49.534;6.378;2024-01-30T00:53:09;23.70;;;10.88;;
53775;SDS011;44276;49.534;6.378;2024-01-30T00:55:37;25.17;;;10.85;;
53775;SDS011;44276;49.534;6.378;2024-01-30T00:58:07;28.63;;;10.93;;
53775;SDS011;44276;49.534;6.378;2024-01-30T01:00:36;29.88;;;12.35;;
53775;SDS011;44276;49.534;6.378;2024-01-30T01:03:04;22.25;;;9.80;;
53775;SDS011;44276;49.534;6.378;2024-01-30T01:05:32;34.10;;;10.93;;
53775;SDS011;44276;49.534;6.378;2024-01-30T01:08:01;28.73;;;12.02;;
53775;SDS011;44276;49.534;6.378;2024-01-30T01:10:29;29.95;;;13.25;;
53775;SDS011;44276;49.534;6.378;2024-01-30T01:12:57;30.42;;;12.32;;
53775;SDS011;44276;49.534;6.378;2024-01-30T01:15:27;28.38;;;10.60;;
53775;SDS011;44276;49.534;6.378;2024-01-30T01:17:56;37.22;;;13.20;;
53775;SDS011;44276;49.534;6.378;2024-01-30T01:20:24;29.42;;;12.98;;
53775;SDS011;44276;49.534;6.378;2024-01-30T01:22:54;31.75;;;13.98;;
53775;SDS011;44276;49.534;6.378;2024-01-30T01:25:24;34.15;;;13.55;;
53775;SDS011;44276;49.534;6.378;2024-01-30T01:27:52;42.03;;;14.52;;
53775;SDS011;44276;49.534;6.378;2024-01-30T01:30:20;43.72;;;15.60;;
53775;SDS011;44276;49.534;6.378;2024-01-30T01:32:53;41.03;;;15.23;;
53775;SDS011;44276;49.534;6.378;2024-01-30T01:35:23;57.80;;;17.23;;
53775;SDS011;44276;49.534;6.378;2024-01-30T01:37:53;52.65;;;17.70;;
53775;SDS011;44276;49.534;6.378;2024-01-30T01:40:22;56.33;;;16.70;;
53775;SDS011;44276;49.534;6.378;2024-01-30T01:42:52;53.42;;;17.08;;
53775;SDS011;44276;49.534;6.378;2024-01-30T01:45:22;57.03;;;18.70;;
53775;SDS011;44276;49.534;6.378;2024-01-30T01:47:50;47.25;;;18.40;;
53775;SDS011;44276;49.534;6.378;2024-01-30T01:50:21;45.50;;;15.82;;
53775;SDS011;44276;49.534;6.378;2024-01-30T01:52:51;46.47;;;17.27;;
53775;SDS011;44276;49.534;6.378;2024-01-30T01:55:21;47.20;;;17.88;;
53775;SDS011;44276;49.534;6.378;2024-01-30T01:57:53;41.60;;;14.18;;
53775;SDS011;44276;49.534;6.378;2024-01-30T02:00:21;47.17;;;14.77;;
53775;SDS011;44276;49.534;6.378;2024-01-30T02:02:51;44.22;;;16.55;;
53775;SDS011;44276;49.534;6.378;2024-01-30T02:05:23;48.08;;;15.27;;
53775;SDS011;44276;49.534;6.378;2024-01-30T02:07:52;46.13;;;14.70;;
53775;SDS011;44276;49.534;6.378;2024-01-30T02:10:22;45.95;;;17.52;;
53775;SDS011;44276;49.534;6.378;2024-01-30T02:12:50;64.90;;;19.63;;
53775;SDS011;44276;49.534;6.378;2024-01-30T02:15:18;37.88;;;16.95;;
53775;SDS011;44276;49.534;6.378;2024-01-30T02:17:47;93.40;;;21.60;;
53775;SDS011;44276;49.534;6.378;2024-01-30T02:20:15;48.72;;;17.70;;
53775;SDS011;44276;49.534;6.378;2024-01-30T02:22:45;47.17;;;19.92;;
53775;SDS011;44276;49.534;6.378;2024-01-30T02:25:15;53.78;;;19.15;;
53775;SDS011;44276;49.534;6.378;2024-01-30T02:27:44;54.42;;;20.40;;
53775;SDS011;44276;49.534;6.378;2024-01-30T02:30:12;52.63;;;18.83;;
53775;SDS011;44276;49.534;6.378;2024-01-30T02:32:41;50.33;;;17.48;;
53775;SDS011;44276;49.534;6.378;2024-01-30T02:35:09;42.92;;;18.60;;
53775;SDS011;44276;49.534;6.378;2024-01-30T02:37:37;59.55;;;18.45;;
53775;SDS011;44276;49.534;6.378;2024-01-30T02:40:07;56.78;;;19.20;;
53775;SDS011;44276;49.534;6.378;2024-01-30T02:42:36;60.38;;;18.58;;
53775;SDS011;44276;49.534;6.378;2024-01-30T02:45:04;59.90;;;17.95;;
53775;SDS011;44276;49.534;6.378;2024-01-30T02:47:33;55.97;;;19.35;;
53775;SDS011;44276;49.534;6.378;2024-01-30T02:50:02;51.85;;;18.85;;
53775;SDS011;44276;49.534;6.378;2024-01-30T02:52:31;58.25;;;21.33;;
53775;SDS011;44276;49.534;6.378;2024-01-30T02:55:00;64.18;;;22.83;;
53775;SDS011;44276;49.534;6.378;2024-01-30T02:57:30;57.22;;;18.63;;
53775;SDS011;44276;49.534;6.378;2024-01-30T02:59:58;76.43;;;21.23;;
53775;SDS011;44276;49.534;6.378;2024-01-30T03:02:27;85.10;;;22.15;;
53775;SDS011;44276;49.534;6.378;2024-01-30T03:04:55;62.72;;;21.23;;
53775;SDS011;44276;49.534;6.378;2024-01-30T03:07:24;94.15;;;22.40;;
53775;SDS011;44276;49.534;6.378;2024-01-30T03:09:52;91.32;;;23.83;;
53775;SDS011;44276;49.534;6.378;2024-01-30T03:12:21;56.17;;;21.88;;
53775;SDS011;44276;49.534;6.378;2024-01-30T03:14:51;70.40;;;21.67;;
53775;SDS011;44276;49.534;6.378;2024-01-30T03:17:19;50.95;;;18.40;;
53775;SDS011;44276;49.534;6.378;2024-01-30T03:19:48;58.33;;;19.58;;
53775;SDS011;44276;49.534;6.378;2024-01-30T03:22:16;49.55;;;17.33;;
53775;SDS011;44276;49.534;6.378;2024-01-30T03:24:44;53.20;;;18.40;;
53775;SDS011;44276;49.534;6.378;2024-01-30T03:27:13;48.38;;;16.48;;
53775;SDS011;44276;49.534;6.378;2024-01-30T03:29:41;60.40;;;18.70;;
53775;SDS011;44276;49.534;6.378;2024-01-30T03:32:11;55.78;;;18.67;;
53775;SDS011;44276;49.534;6.378;2024-01-30T03:34:39;49.97;;;19.35;;
53775;SDS011;44276;49.534;6.378;2024-01-30T03:37:07;57.03;;;19.92;;
53775;SDS011;44276;49.534;6.378;2024-01-30T03:39:36;60.38;;;19.73;;
53775;SDS011;44276;49.534;6.378;2024-01-30T03:42:04;55.42;;;18.05;;
53775;SDS011;44276;49.534;6.378;2024-01-30T03:44:32;52.38;;;18.73;;
53775;SDS011;44276;49.534;6.378;2024-01-30T03:47:00;47.30;;;18.05;;
53775;SDS011;44276;49.534;6.378;2024-01-30T03:49:30;57.08;;;19.45;;
53775;SDS011;44276;49.534;6.378;2024-01-30T03:51:58;68.95;;;21.75;;
53775;SDS011;44276;49.534;6.378;2024-01-30T03:54:27;57.05;;;20.08;;
53775;SDS011;44276;49.534;6.378;2024-01-30T03:56:55;61.90;;;17.45;;
53775;SDS011;44276;49.534;6.378;2024-01-30T03:59:23;47.65;;;18.33;;
53775;SDS011;44276;49.534;6.378;2024-01-30T04:01:51;52.08;;;16.38;;
53775;SDS011;44276;49.534;6.378;2024-01-30T04:04:20;37.70;;;17.83;;
53775;SDS011;44276;49.534;6.378;2024-01-30T04:06:50;48.28;;;16.98;;
53775;SDS011;44276;49.534;6.378;2024-01-30T04:09:19;47.10;;;15.73;;
53775;SDS011;44276;49.534;6.378;2024-01-30T04:11:47;42.08;;;15.02;;
53775;SDS011;44276;49.534;6.378;2024-01-30T04:14:15;34.22;;;15.63;;
53775;SDS011;44276;49.534;6.378;2024-01-30T04:16:43;45.15;;;17.83;;
53775;SDS011;44276;49.534;6.378;2024-01-30T04:19:12;39.35;;;17.52;;
53775;SDS011;44276;49.534;6.378;2024-01-30T04:21:40;41.80;;;15.75;;
53775;SDS011;44276;49.534;6.378;2024-01-30T04:24:10;45.58;;;16.10;;
53775;SDS011;44276;49.534;6.378;2024-01-30T04:26:38;41.17;;;16.27;;
53775;SDS011;44276;49.534;6.378;2024-01-30T04:29:06;51.15;;;17.92;;
53775;SDS011;44276;49.534;6.378;2024-01-30T04:31:35;45.53;;;18.33;;
53775;SDS011;44276;49.534;6.378;2024-01-30T04:34:04;42.95;;;16.15;;
53775;SDS011;44276;49.534;6.378;2024-01-30T04:36:32;56.13;;;17.10;;
53775;SDS011;44276;49.534;6.378;2024-01-30T04:39:00;43.58;;;17.88;;
53775;SDS011;44276;49.534;6.378;2024-01-30T04:41:30;53.72;;;17.30;;
53775;SDS011;44276;49.534;6.378;2024-01-30T04:43:58;55.97;;;18.35;;
53775;SDS011;44276;49.534;6.378;2024-01-30T04:46:26;57.72;;;18.08;;
53775;SDS011;44276;49.534;6.378;2024-01-30T04:48:55;55.42;;;18.80;;
53775;SDS011;44276;49.534;6.378;2024-01-30T04:51:23;46.30;;;16.63;;
53775;SDS011;44276;49.534;6.378;2024-01-30T04:53:52;56.95;;;18.05;;
53775;SDS011;44276;49.534;6.378;2024-01-30T04:56:20;45.47;;;15.57;;
53775;SDS011;44276;49.534;6.378;2024-01-30T04:58:49;48.00;;;16.80;;
53775;SDS011;44276;49.534;6.378;2024-01-30T05:01:18;40.80;;;14.88;;
53775;SDS011;44276;49.534;6.378;2024-01-30T05:03:46;40.08;;;16.92;;
53775;SDS011;44276;49.534;6.378;2024-01-30T05:06:23;44.88;;;15.10;;
53775;SDS011;44276;49.534;6.378;2024-01-30T05:08:52;48.58;;;17.95;;
53775;SDS011;44276;49.534;6.378;2024-01-30T05:11:21;57.13;;;19.48;;
53775;SDS011;44276;49.534;6.378;2024-01-30T05:13:50;51.67;;;18.52;;
53775;SDS011;44276;49.534;6.378;2024-01-30T05:16:19;47.45;;;17.58;;
53775;SDS011;44276;49.534;6.378;2024-01-30T05:18:47;47.92;;;17.33;;
53775;SDS011;44276;49.534;6.378;2024-01-30T05:21:15;45.10;;;16.60;;
53775;SDS011;44276;49.534;6.378;2024-01-30T05:23:43;46.20;;;19.17;;
53775;SDS011;44276;49.534;6.378;2024-01-30T05:26:11;40.45;;;18.10;;
53775;SDS011;44276;49.534;6.378;2024-01-30T05:28:39;68.95;;;22.13;;
53775;SDS011;44276;49.534;6.378;2024-01-30T05:31:09;55.67;;;19.08;;
53775;SDS011;44276;49.534;6.378;2024-01-30T05:33:38;47.30;;;17.98;;
53775;SDS011;44276;49.534;6.378;2024-01-30T05:36:06;48.78;;;18.02;;
53775;SDS011;44276;49.534;6.378;2024-01-30T05:38:35;47.03;;;18.00;;
53775;SDS011;44276;49.534;6.378;2024-01-30T05:41:04;47.85;;;17.70;;
53775;SDS011;44276;49.534;6.378;2024-01-30T05:43:32;44.15;;;17.02;;
53775;SDS011;44276;49.534;6.378;2024-01-30T05:46:00;52.47;;;17.85;;
53775;SDS011;44276;49.534;6.378;2024-01-30T05:48:30;42.15;;;16.88;;
53775;SDS011;44276;49.534;6.378;2024-01-30T05:50:58;46.65;;;16.80;;
53775;SDS011;44276;49.534;6.378;2024-01-30T05:53:27;54.60;;;17.98;;
53775;SDS011;44276;49.534;6.378;2024-01-30T05:55:55;47.53;;;18.67;;
53775;SDS011;44276;49.534;6.378;2024-01-30T05:58:23;53.47;;;19.67;;
53775;SDS011;44276;49.534;6.378;2024-01-30T06:00:52;44.38;;;21.02;;
53775;SDS011;44276;49.534;6.378;2024-01-30T06:03:21;57.88;;;20.30;;
53775;SDS011;44276;49.534;6.378;2024-01-30T06:05:51;63.05;;;22.15;;
53775;SDS011;44276;49.534;6.378;2024-01-30T06:08:20;69.60;;;20.83;;
53775;SDS011;44276;49.534;6.378;2024-01-30T06:10:48;56.25;;;21.27;;
53775;SDS011;44276;49.534;6.378;2024-01-30T06:13:16;47.92;;;20.65;;
53775;SDS011;44276;49.534;6.378;2024-01-30T06:15:45;65.63;;;21.80;;
53775;SDS011;44276;49.534;6.378;2024-01-30T06:18:13;51.78;;;21.70;;
53775;SDS011;44276;49.534;6.378;2024-01-30T06:20:41;58.47;;;19.42;;
53775;SDS011;44276;49.534;6.378;2024-01-30T06:23:11;48.28;;;19.13;;
53775;SDS011;44276;49.534;6.378;2024-01-30T06:25:40;50.08;;;20.70;;
53775;SDS011;44276;49.534;6.378;2024-01-30T06:28:09;71.43;;;21.65;;
53775;SDS011;44276;49.534;6.378;2024-01-30T06:30:37;53.90;;;20.55;;
53775;SDS011;44276;49.534;6.378;2024-01-30T06:33:05;51.78;;;21.98;;
53775;SDS011;44276;49.534;6.378;2024-01-30T06:35:33;48.97;;;19.67;;
53775;SDS011;44276;49.534;6.378;2024-01-30T06:38:11;47.17;;;18.92;;
53775;SDS011;44276;49.534;6.378;2024-01-30T06:40:41;44.30;;;19.60;;
53775;SDS011;44276;49.534;6.378;2024-01-30T06:43:10;47.85;;;19.30;;
53775;SDS011;44276;49.534;6.378;2024-01-30T06:45:38;49.53;;;20.17;;
53775;SDS011;44276;49.534;6.378;2024-01-30T06:48:07;52.35;;;21.55;;
53775;SDS011;44276;49.534;6.378;2024-01-30T06:50:35;49.22;;;19.38;;
53775;SDS011;44276;49.534;6.378;2024-01-30T06:53:03;69.68;;;25.60;;
53775;SDS011;44276;49.534;6.378;2024-01-30T06:55:33;70.15;;;24.23;;
53775;SDS011;44276;49.534;6.378;2024-01-30T06:58:01;52.70;;;23.45;;
53775;SDS011;44276;49.534;6.378;2024-01-30T07:00:30;61.85;;;23.73;;
53775;SDS011;44276;49.534;6.378;2024-01-30T07:02:58;72.82;;;25.20;;
53775;SDS011;44276;49.534;6.378;2024-01-30T07:05:27;60.45;;;23.08;;
53775;SDS011;44276;49.534;6.378;2024-01-30T07:07:55;64.68;;;22.42;;
53775;SDS011;44276;49.534;6.378;2024-01-30T07:10:24;56.88;;;23.88;;
53775;SDS011;44276;49.534;6.378;2024-01-30T07:12:54;58.47;;;23.92;;
53775;SDS011;44276;49.534;6.378;2024-01-30T07:15:22;58.50;;;22.60;;
53775;SDS011;44276;49.534;6.378;2024-01-30T07:17:50;56.13;;;20.83;;
53775;SDS011;44276;49.534;6.378;2024-01-30T07:20:19;67.75;;;21.58;;
53775;SDS011;44276;49.534;6.378;2024-01-30T07:22:47;57.38;;;23.98;;
53775;SDS011;44276;49.534;6.378;2024-01-30T07:25:16;58.50;;;21.10;;
53775;SDS011;44276;49.534;6.378;2024-01-30T07:27:44;51.40;;;19.00;;
53775;SDS011;44276;49.534;6.378;2024-01-30T07:30:14;58.05;;;21.45;;
53775;SDS011;44276;49.534;6.378;2024-01-30T07:32:43;62.05;;;21.52;;
53775;SDS011;44276;49.534;6.378;2024-01-30T07:35:11;51.70;;;20.63;;
53775;SDS011;44276;49.534;6.378;2024-01-30T07:37:40;57.65;;;22.75;;
53775;SDS011;44276;49.534;6.378;2024-01-30T07:40:09;56.08;;;22.02;;
53775;SDS011;44276;49.534;6.378;2024-01-30T07:42:38;62.95;;;21.45;;
53775;SDS011;44276;49.534;6.378;2024-01-30T07:45:06;52.33;;;22.23;;
53775;SDS011;44276;49.534;6.378;2024-01-30T07:47:37;59.28;;;20.88;;
53775;SDS011;44276;49.534;6.378;2024-01-30T07:50:06;51.97;;;23.33;;
53775;SDS011;44276;49.534;6.378;2024-01-30T07:52:35;55.45;;;24.17;;
53775;SDS011;44276;49.534;6.378;2024-01-30T07:55:05;53.80;;;20.75;;
53775;SDS011;44276;49.534;6.378;2024-01-30T07:57:35;54.42;;;20.42;;
53775;SDS011;44276;49.534;6.378;2024-01-30T08:00:06;54.90;;;23.48;;
53775;SDS011;44276;49.534;6.378;2024-01-30T08:02:35;58.50;;;24.38;;
53775;SDS011;44276;49.534;6.378;2024-01-30T08:05:04;58.55;;;20.80;;
53775;SDS011;44276;49.534;6.378;2024-01-30T08:07:33;60.83;;;26.17;;
53775;SDS011;44276;49.534;6.378;2024-01-30T08:10:01;58.22;;;24.15;;
53775;SDS011;44276;49.534;6.378;2024-01-30T08:12:30;52.75;;;21.85;;
53775;SDS011;44276;49.534;6.378;2024-01-30T08:14:58;70.50;;;28.08;;
53775;SDS011;44276;49.534;6.378;2024-01-30T08:17:26;60.42;;;25.08;;
53775;SDS011;44276;49.534;6.378;2024-01-30T08:19:55;66.20;;;25.50;;
53775;SDS011;44276;49.534;6.378;2024-01-30T08:22:25;62.22;;;25.83;;
53775;SDS011;44276;49.534;6.378;2024-01-30T08:24:54;65.82;;;27.05;;
53775;SDS011;44276;49.534;6.378;2024-01-30T08:27:22;53.53;;;24.10;;
53775;SDS011;44276;49.534;6.378;2024-01-30T08:29:50;63.17;;;23.88;;
53775;SDS011;44276;49.534;6.378;2024-01-30T08:32:18;52.00;;;21.42;;
53775;SDS011;44276;49.534;6.378;2024-01-30T08:34:46;58.53;;;22.80;;
53775;SDS011;44276;49.534;6.378;2024-01-30T08:37:15;55.40;;;23.35;;
53775;SDS011;44276;49.534;6.378;2024-01-30T08:39:45;48.92;;;22.48;;
53775;SDS011;44276;49.534;6.378;2024-01-30T08:42:13;55.22;;;23.13;;
53775;SDS011;44276;49.534;6.378;2024-01-30T08:44:42;53.78;;;23.45;;
53775;SDS011;44276;49.534;6.378;2024-01-30T08:47:10;57.78;;;21.70;;
53775;SDS011;44276;49.534;6.378;2024-01-30T08:49:38;56.25;;;24.48;;
53775;SDS011;44276;49.534;6.378;2024-01-30T08:52:06;72.20;;;26.17;;
53775;SDS011;44276;49.534;6.378;2024-01-30T08:54:35;60.22;;;26.23;;
53775;SDS011;44276;49.534;6.378;2024-01-30T08:57:05;53.25;;;25.85;;
53775;SDS011;44276;49.534;6.378;2024-01-30T08:59:33;50.75;;;24.70;;
53775;SDS011;44276;49.534;6.378;2024-01-30T09:02:01;57.72;;;25.35;;
53775;SDS011;44276;49.534;6.378;2024-01-30T09:04:38;47.22;;;24.08;;
53775;SDS011;44276;49.534;6.378;2024-01-30T09:07:08;52.58;;;23.38;;
53775;SDS011;44276;49.534;6.378;2024-01-30T09:09:37;43.30;;;19.52;;
53775;SDS011;44276;49.534;6.378;2024-01-30T09:12:08;46.92;;;22.23;;
53775;SDS011;44276;49.534;6.378;2024-01-30T09:14:38;41.83;;;20.52;;
53775;SDS011;44276;49.534;6.378;2024-01-30T09:17:08;40.58;;;20.95;;
53775;SDS011;44276;49.534;6.378;2024-01-30T09:19:36;41.58;;;19.80;;
53775;SDS011;44276;49.534;6.378;2024-01-30T09:22:04;40.13;;;21.00;;
53775;SDS011;44276;49.534;6.378;2024-01-30T09:24:33;35.65;;;18.33;;
53775;SDS011;44276;49.534;6.378;2024-01-30T09:27:01;45.00;;;20.30;;
53775;SDS011;44276;49.534;6.378;2024-01-30T09:29:31;44.08;;;20.90;;
53775;SDS011;44276;49.534;6.378;2024-01-30T09:32:00;37.92;;;19.70;;
53775;SDS011;44276;49.534;6.378;2024-01-30T09:34:28;26.30;;;18.15;;
53775;SDS011;44276;49.534;6.378;2024-01-30T09:36:57;46.10;;;18.58;;
53775;SDS011;44276;49.534;6.378;2024-01-30T09:39:26;48.80;;;19.65;;
53775;SDS011;44276;49.534;6.378;2024-01-30T09:41:55;45.92;;;20.38;;
53775;SDS011;44276;49.534;6.378;2024-01-30T09:44:31;46.13;;;18.33;;
53775;SDS011;44276;49.534;6.378;2024-01-30T09:47:05;33.88;;;16.52;;
53775;SDS011;44276;49.534;6.378;2024-01-30T09:49:34;33.22;;;15.27;;
53775;SDS011;44276;49.534;6.378;2024-01-30T09:52:03;24.13;;;13.55;;
53775;SDS011;44276;49.534;6.378;2024-01-30T09:54:34;28.13;;;14.23;;
53775;SDS011;44276;49.534;6.378;2024-01-30T09:57:03;23.77;;;12.75;;
53775;SDS011;44276;49.534;6.378;2024-01-30T09:59:34;25.92;;;12.50;;
53775;SDS011;44276;49.534;6.378;2024-01-30T10:02:03;26.40;;;12.32;;
53775;SDS011;44276;49.534;6.378;2024-01-30T10:04:31;18.30;;;10.57;;
53775;SDS011;44276;49.534;6.378;2024-01-30T10:07:01;19.33;;;10.65;;
53775;SDS011;44276;49.534;6.378;2024-01-30T10:09:31;16.17;;;9.85;;
53775;SDS011;44276;49.534;6.378;2024-01-30T10:12:01;12.65;;;7.38;;
53775;SDS011;44276;49.534;6.378;2024-01-30T10:14:31;16.90;;;7.72;;
53775;SDS011;44276;49.534;6.378;2024-01-30T10:17:00;10.15;;;7.03;;
53775;SDS011;44276;49.534;6.378;2024-01-30T10:19:37;11.80;;;7.68;;
53775;SDS011;44276;49.534;6.378;2024-01-30T10:22:06;15.68;;;7.25;;
53775;SDS011;44276;49.534;6.378;2024-01-30T10:24:35;11.23;;;5.93;;
53775;SDS011;44276;49.534;6.378;2024-01-30T10:27:05;23.63;;;8.00;;
53775;SDS011;44276;49.534;6.378;2024-01-30T10:29:34;15.13;;;7.07;;
53775;SDS011;44276;49.534;6.378;2024-01-30T10:32:04;11.05;;;6.10;;
53775;SDS011;44276;49.534;6.378;2024-01-30T10:34:33;10.43;;;5.78;;
53775;SDS011;44276;49.534;6.378;2024-01-30T10:37:06;13.63;;;6.60;;
53775;SDS011;44276;49.534;6.378;2024-01-30T10:39:39;16.65;;;6.68;;
53775;SDS011;44276;49.534;6.378;2024-01-30T10:42:10;8.82;;;5.65;;
53775;SDS011;44276;49.534;6.378;2024-01-30T10:44:44;12.23;;;6.22;;
53775;SDS011;44276;49.534;6.378;2024-01-30T10:47:27;9.50;;;6.30;;
53775;SDS011;44276;49.534;6.378;2024-01-30T10:49:57;10.48;;;5.20;;
53775;SDS011;44276;49.534;6.378;2024-01-30T10:52:25;7.95;;;5.07;;
53775;SDS011;44276;49.534;6.378;2024-01-30T10:54:56;10.23;;;6.38;;
53775;SDS011;44276;49.534;6.378;2024-01-30T10:57:24;8.25;;;4.85;;
53775;SDS011;44276;49.534;6.378;2024-01-30T10:59:57;13.45;;;6.43;;
53775;SDS011;44276;49.534;6.378;2024-01-30T11:02:29;8.90;;;5.13;;
53775;SDS011;44276;49.534;6.378;2024-01-30T11:04:59;12.20;;;5.93;;
53775;SDS011;44276;49.534;6.378;2024-01-30T11:07:28;9.48;;;5.43;;
53775;SDS011;44276;49.534;6.378;2024-01-30T11:09:59;12.15;;;6.03;;
53775;SDS011;44276;49.534;6.378;2024-01-30T11:12:31;13.48;;;6.15;;
53775;SDS011;44276;49.534;6.378;2024-01-30T11:15:01;9.02;;;5.30;;
53775;SDS011;44276;49.534;6.378;2024-01-30T11:17:49;11.68;;;6.78;;
53775;SDS011;44276;49.534;6.378;2024-01-30T11:20:19;10.90;;;6.35;;
53775;SDS011;44276;49.534;6.378;2024-01-30T11:22:50;11.52;;;5.55;;
53775;SDS011;44276;49.534;6.378;2024-01-30T11:25:21;9.57;;;5.68;;
53775;SDS011;44276;49.534;6.378;2024-01-30T11:27:51;13.77;;;5.38;;
53775;SDS011;44276;49.534;6.378;2024-01-30T11:30:22;10.38;;;5.40;;
53775;SDS011;44276;49.534;6.378;2024-01-30T11:33:00;10.98;;;5.53;;
53775;SDS011;44276;49.534;6.378;2024-01-30T11:35:33;10.45;;;6.43;;
53775;SDS011;44276;49.534;6.378;2024-01-30T11:38:03;9.60;;;5.65;;
53775;SDS011;44276;49.534;6.378;2024-01-30T11:40:32;10.50;;;4.95;;
53775;SDS011;44276;49.534;6.378;2024-01-30T11:43:03;9.65;;;4.72;;
53775;SDS011;44276;49.534;6.378;2024-01-30T11:45:36;8.85;;;4.97;;
53775;SDS011;44276;49.534;6.378;2024-01-30T11:48:07;18.60;;;5.38;;
53775;SDS011;44276;49.534;6.378;2024-01-30T11:50:37;10.73;;;5.97;;
53775;SDS011;44276;49.534;6.378;2024-01-30T11:53:07;15.50;;;5.47;;
53775;SDS011;44276;49.534;6.378;2024-01-30T11:55:36;11.50;;;6.22;;
53775;SDS011;44276;49.534;6.378;2024-01-30T11:58:05;12.23;;;5.45;;
53775;SDS011;44276;49.534;6.378;2024-01-30T12:00:33;9.20;;;4.95;;
53775;SDS011;44276;49.534;6.378;2024-01-30T12:03:02;11.45;;;5.82;;
53775;SDS011;44276;49.534;6.378;2024-01-30T12:05:34;8.73;;;5.13;;
53775;SDS011;44276;49.534;6.378;2024-01-30T12:08:14;10.57;;;5.15;;
53775;SDS011;44276;49.534;6.378;2024-01-30T12:10:43;10.32;;;5.10;;
53775;SDS011;44276;49.534;6.378;2024-01-30T12:13:11;9.48;;;4.78;;
53775;SDS011;44276;49.534;6.378;2024-01-30T12:15:41;8.68;;;4.88;;
53775;SDS011;44276;49.534;6.378;2024-01-30T12:18:10;10.55;;;4.97;;
53775;SDS011;44276;49.534;6.378;2024-01-30T12:20:39;11.70;;;5.35;;
53775;SDS011;44276;49.534;6.378;2024-01-30T12:23:07;10.82;;;5.35;;
53775;SDS011;44276;49.534;6.378;2024-01-30T12:25:37;8.43;;;5.15;;
53775;SDS011;44276;49.534;6.378;2024-01-30T12:28:06;8.18;;;5.22;;
53775;SDS011;44276;49.534;6.378;2024-01-30T12:30:34;12.15;;;6.13;;
53775;SDS011;44276;49.534;6.378;2024-01-30T12:33:02;9.25;;;4.72;;
53775;SDS011;44276;49.534;6.378;2024-01-30T12:35:34;7.03;;;4.57;;
53775;SDS011;44276;49.534;6.378;2024-01-30T12:38:15;10.75;;;4.97;;
53775;SDS011;44276;49.534;6.378;2024-01-30T12:40:43;8.27;;;4.40;;
53775;SDS011;44276;49.534;6.378;2024-01-30T12:43:13;13.18;;;6.32;;
53775;SDS011;44276;49.534;6.378;2024-01-30T12:45:57;7.35;;;4.60;;
53775;SDS011;44276;49.534;6.378;2024-01-30T12:48:26;7.78;;;4.82;;
53775;SDS011;44276;49.534;6.378;2024-01-30T12:50:55;10.10;;;5.18;;
53775;SDS011;44276;49.534;6.378;2024-01-30T12:53:25;8.02;;;5.25;;
53775;SDS011;44276;49.534;6.378;2024-01-30T12:55:53;8.32;;;4.70;;
53775;SDS011;44276;49.534;6.378;2024-01-30T12:58:21;10.77;;;5.05;;
53775;SDS011;44276;49.534;6.378;2024-01-30T13:00:50;11.05;;;5.60;;
53775;SDS011;44276;49.534;6.378;2024-01-30T13:03:18;11.02;;;5.18;;
53775;SDS011;44276;49.534;6.378;2024-01-30T13:05:47;11.45;;;5.35;;
53775;SDS011;44276;49.534;6.378;2024-01-30T13:08:15;6.57;;;4.18;;
53775;SDS011;44276;49.534;6.378;2024-01-30T13:10:45;18.90;;;5.25;;
53775;SDS011;44276;49.534;6.378;2024-01-30T13:13:15;9.77;;;5.30;;
53775;SDS011;44276;49.534;6.378;2024-01-30T13:15:46;9.60;;;4.82;;
53775;SDS011;44276;49.534;6.378;2024-01-30T13:18:15;8.13;;;4.40;;
53775;SDS011;44276;49.534;6.378;2024-01-30T13:20:43;10.32;;;6.53;;
53775;SDS011;44276;49.534;6.378;2024-01-30T13:23:11;10.50;;;5.57;;
53775;SDS011;44276;49.534;6.378;2024-01-30T13:25:39;8.65;;;5.53;;
53775;SDS011;44276;49.534;6.378;2024-01-30T13:28:09;9.10;;;5.65;;
53775;SDS011;44276;49.534;6.378;2024-01-30T13:30:37;8.75;;;5.03;;
53775;SDS011;44276;49.534;6.378;2024-01-30T13:33:06;8.35;;;4.82;;
53775;SDS011;44276;49.534;6.378;2024-01-30T13:35:34;9.07;;;5.00;;
53775;SDS011;44276;49.534;6.378;2024-01-30T13:38:02;10.73;;;5.78;;
53775;SDS011;44276;49.534;6.378;2024-01-30T13:40:31;9.73;;;5.88;;
53775;SDS011;44276;49.534;6.378;2024-01-30T13:42:59;10.70;;;5.65;;
53775;SDS011;44276;49.534;6.378;2024-01-30T13:45:29;13.55;;;5.82;;
53775;SDS011;44276;49.534;6.378;2024-01-30T13:47:57;10.60;;;5.53;;
53775;SDS011;44276;49.534;6.378;2024-01-30T13:50:26;12.10;;;5.43;;
53775;SDS011;44276;49.534;6.378;2024-01-30T13:52:54;10.48;;;5.45;;
53775;SDS011;44276;49.534;6.378;2024-01-30T13:55:24;10.63;;;5.22;;
53775;SDS011;44276;49.534;6.378;2024-01-30T13:57:52;10.73;;;5.85;;
53775;SDS011;44276;49.534;6.378;2024-01-30T14:00:22;8.90;;;3.95;;
53775;SDS011;44276;49.534;6.378;2024-01-30T14:02:53;8.27;;;4.50;;
53775;SDS011;44276;49.534;6.378;2024-01-30T14:05:22;10.13;;;5.00;;
53775;SDS011;44276;49.534;6.378;2024-01-30T14:07:51;13.95;;;5.82;;
53775;SDS011;44276;49.534;6.378;2024-01-30T14:10:20;8.57;;;4.82;;
53775;SDS011;44276;49.534;6.378;2024-01-30T14:12:49;9.10;;;4.50;;
53775;SDS011;44276;49.534;6.378;2024-01-30T14:15:17;15.70;;;7.10;;
53775;SDS011;44276;49.534;6.378;2024-01-30T14:17:56;11.07;;;5.57;;
53775;SDS011;44276;49.534;6.378;2024-01-30T14:20:25;12.65;;;4.50;;
53775;SDS011;44276;49.534;6.378;2024-01-30T14:22:54;24.13;;;6.88;;
53775;SDS011;44276;49.534;6.378;2024-01-30T14:25:23;9.13;;;4.88;;
53775;SDS011;44276;49.534;6.378;2024-01-30T14:27:51;12.60;;;4.15;;
53775;SDS011;44276;49.534;6.378;2024-01-30T14:30:20;13.18;;;5.40;;
53775;SDS011;44276;49.534;6.378;2024-01-30T14:32:49;12.02;;;4.35;;
53775;SDS011;44276;49.534;6.378;2024-01-30T14:35:19;7.32;;;4.55;;
53775;SDS011;44276;49.534;6.378;2024-01-30T14:37:47;13.77;;;6.05;;